Time;durP1;ratioP1;P1;durP2;ratioP2;P2;SDS_P1;SDS_P2;PMS_P1;PMS_P2;Temp;Humidity;BMP_temperature;BMP_pressure;BME280_temperature;BME280_humidity;BME280_pressure;Samples;Min_cycle;Max_cycle;Signal;HPM_P1;HPM_P2
2022/07/21 00:00:24;;;;;;;4.43;1.90;;;;;;;22.79;42.51;99408.41;4346722;33;33667;-82
2022/07/21 00:02:53;;;;;;;3.35;2.20;;;;;;;22.68;42.46;99416.19;4348098;33;34099;-82
2022/07/21 00:05:22;;;;;;;4.03;2.20;;;;;;;22.82;42.41;99408.25;4346749;33;34702;-81
2022/07/21 00:07:51;;;;;;;4.25;2.20;;;;;;;22.68;42.58;99413.53;4348145;33;35369;-81
2022/07/21 00:10:22;;;;;;;7.32;2.40;;;;;;;22.34;44.38;99418.12;4327477;33;403844;-81
2022/07/21 00:12:50;;;;;;;5.57;3.28;;;;;;;22.19;44.09;99413.72;4346735;33;34026;-81
2022/07/21 00:15:19;;;;;;;4.85;2.45;;;;;;;22.22;43.98;99416.16;4333405;33;35500;-81
2022/07/21 00:17:48;;;;;;;7.32;2.37;;;;;;;22.06;44.24;99424.16;4344634;33;34415;-81
2022/07/21 00:20:17;;;;;;;3.85;2.30;;;;;;;22.13;44.37;99425.50;4346544;33;33668;-80
2022/07/21 00:22:45;;;;;;;5.65;2.50;;;;;;;21.78;44.80;99421.25;4347853;33;33843;-81
2022/07/21 00:25:14;;;;;;;5.53;2.53;;;;;;;21.69;44.49;99421.78;4346327;33;34599;-81
2022/07/21 00:27:42;;;;;;;4.75;2.22;;;;;;;22.31;43.92;99424.50;4334671;33;34358;-81
2022/07/21 00:30:11;;;;;;;5.18;2.65;;;;;;;22.18;43.78;99422.59;4346084;33;34458;-81
2022/07/21 00:32:39;;;;;;;5.47;3.25;;;;;;;21.54;46.05;99422.63;4333283;33;34727;-81
2022/07/21 00:35:08;;;;;;;4.82;2.42;;;;;;;22.04;44.36;99426.03;4329911;33;34930;-82
2022/07/21 00:37:37;;;;;;;7.22;2.58;;;;;;;21.92;44.94;99430.25;4346536;33;34598;-82
2022/07/21 00:40:07;;;;;;;4.93;2.87;;;;;;;22.08;44.57;99428.44;4333195;33;33753;-82
2022/07/21 00:42:35;;;;;;;5.28;2.50;;;;;;;22.12;43.40;99427.31;4347947;33;33903;-81
2022/07/21 00:45:05;;;;;;;4.22;2.20;;;;;;;22.19;43.95;99422.50;4346326;33;35215;-82
2022/07/21 00:47:33;;;;;;;3.97;2.30;;;;;;;21.89;44.20;99414.50;4346333;33;34476;-81
2022/07/21 00:50:04;;;;;;;4.30;2.50;;;;;;;22.03;43.99;99419.03;4346152;33;33771;-82
2022/07/21 00:52:32;;;;;;;3.50;2.20;;;;;;;21.91;45.20;99418.78;4346457;33;33133;-82
2022/07/21 00:55:01;;;;;;;3.85;1.90;;;;;;;21.42;45.57;99420.59;4346385;33;35759;-81
2022/07/21 00:57:30;;;;;;;3.83;2.35;;;;;;;21.64;45.01;99413.22;4347719;33;34727;-81
2022/07/21 00:59:57;;;;;;;3.78;2.17;;;;;;;21.60;45.72;99424.94;4332904;33;33652;-81
2022/07/21 01:02:28;;;;;;;5.30;2.35;;;;;;;21.50;45.79;99413.13;4347684;33;33546;-81
2022/07/21 01:04:55;;;;;;;7.80;2.65;;;;;;;21.32;46.26;99429.06;4344411;33;34928;-81
2022/07/21 01:07:23;;;;;;;4.65;2.58;;;;;;;20.95;45.93;99423.06;4347577;33;35066;-81
2022/07/21 01:09:52;;;;;;;3.90;2.12;;;;;;;21.40;45.58;99420.69;4326850;33;34540;-81
2022/07/21 01:12:20;;;;;;;6.07;2.50;;;;;;;21.23;46.39;99429.56;4334156;33;33954;-81
2022/07/21 01:14:48;;;;;;;5.57;2.60;;;;;;;21.45;46.13;99434.53;4332495;33;34324;-81
2022/07/21 01:17:16;;;;;;;5.55;2.25;;;;;;;21.26;46.10;99436.47;4347396;33;34846;-81
2022/07/21 01:19:44;;;;;;;5.00;2.20;;;;;;;21.27;47.11;99427.59;4346022;33;33678;-81
2022/07/21 01:22:12;;;;;;;5.03;2.53;;;;;;;21.35;46.34;99428.91;4334164;33;34016;-81
2022/07/21 01:24:40;;;;;;;7.90;2.70;;;;;;;20.56;49.30;99424.16;4345733;33;34991;-82
2022/07/21 01:27:08;;;;;;;4.18;1.90;;;;;;;21.04;47.64;99412.94;4345925;33;34512;-81
2022/07/21 01:29:35;;;;;;;4.05;2.20;;;;;;;20.86;47.42;99420.91;4345721;33;34324;-82
2022/07/21 01:32:04;;;;;;;3.92;2.12;;;;;;;21.19;46.96;99412.97;4347262;33;34005;-81
2022/07/21 01:34:32;;;;;;;4.45;2.33;;;;;;;21.53;46.43;99415.59;4345855;33;34601;-81
2022/07/21 01:37:00;;;;;;;3.67;2.30;;;;;;;21.43;46.47;99424.97;4345765;33;34494;-82
2022/07/21 01:42:14;;;;;;;6.55;2.03;;;;;;;21.37;46.87;99421.72;4347466;33;33747;-81
2022/07/21 01:44:42;;;;;;;3.97;2.20;;;;;;;21.39;46.73;99419.84;4347560;33;35398;-82
2022/07/21 01:47:10;;;;;;;7.97;2.40;;;;;;;21.11;47.53;99409.03;4348122;33;35381;-82
2022/07/21 01:49:38;;;;;;;3.12;1.92;;;;;;;20.80;47.94;99414.09;4347797;33;34641;-82
2022/07/21 01:52:06;;;;;;;3.50;2.35;;;;;;;21.36;47.22;99419.16;4347926;33;33836;-81
2022/07/21 01:54:34;;;;;;;3.80;2.20;;;;;;;20.87;48.37;99419.09;4347570;33;35013;-81
2022/07/21 01:57:02;;;;;;;3.03;1.98;;;;;;;21.21;46.52;99415.50;4349292;33;34476;-82
2022/07/21 01:59:30;;;;;;;3.53;2.25;;;;;;;21.11;47.77;99414.31;4345775;33;34636;-81
2022/07/21 02:01:58;;;;;;;5.95;2.92;;;;;;;21.06;48.08;99421.66;4347789;33;34702;-82
2022/07/21 02:04:26;;;;;;;3.55;1.90;;;;;;;21.04;47.70;99416.44;4346138;33;34918;-81
2022/07/21 02:06:54;;;;;;;4.62;2.10;;;;;;;21.37;47.75;99431.44;4349143;33;35093;-81
2022/07/21 02:09:22;;;;;;;5.32;2.42;;;;;;;20.91;48.78;99426.81;4339107;33;34560;-81
2022/07/21 02:11:51;;;;;;;5.40;2.50;;;;;;;20.13;50.91;99420.97;4347613;33;34635;-82
2022/07/21 02:14:19;;;;;;;3.78;2.30;;;;;;;20.30;50.51;99427.25;4347449;33;35032;-81
2022/07/21 02:16:47;;;;;;;3.90;2.22;;;;;;;20.68;49.88;99416.53;4349124;33;34524;-81
2022/07/21 02:19:16;;;;;;;5.80;2.30;;;;;;;20.29;50.63;99425.50;4347531;33;33214;-82
2022/07/21 02:21:43;;;;;;;2.90;2.22;;;;;;;20.06;50.57;99419.56;4347726;33;33471;-82
2022/07/21 02:24:11;;;;;;;3.50;2.30;;;;;;;20.69;49.05;99423.56;4346137;33;34699;-81
2022/07/21 02:26:39;;;;;;;6.90;2.35;;;;;;;20.57;49.86;99425.84;4348969;33;35128;-82
2022/07/21 02:29:07;;;;;;;4.53;2.42;;;;;;;20.67;49.03;99428.06;4347994;33;34749;-81
2022/07/21 02:31:35;;;;;;;4.20;2.10;;;;;;;20.80;48.36;99429.13;4349192;33;34415;-81
2022/07/21 02:34:03;;;;;;;3.25;2.28;;;;;;;20.39;49.97;99437.34;4349322;33;34720;-82
2022/07/21 02:36:31;;;;;;;9.85;3.12;;;;;;;20.40;49.01;99437.28;4348020;33;33581;-82
2022/07/21 02:38:59;;;;;;;6.87;2.60;;;;;;;20.42;49.22;99439.84;4347592;33;33327;-82
2022/07/21 02:41:27;;;;;;;4.97;2.33;;;;;;;20.97;48.54;99431.78;4346286;33;33988;-81
2022/07/21 02:43:55;;;;;;;3.80;2.30;;;;;;;20.98;48.51;99425.56;4348977;33;35130;-82
2022/07/21 02:46:23;;;;;;;5.22;2.58;;;;;;;20.94;47.82;99433.72;4347317;33;34230;-82
2022/07/21 02:48:51;;;;;;;3.97;2.33;;;;;;;20.55;49.50;99433.00;4348975;33;34460;-82
2022/07/21 02:51:19;;;;;;;4.07;2.28;;;;;;;20.76;48.84;99435.53;4347288;33;33766;-86
2022/07/21 02:53:47;;;;;;;4.00;2.17;;;;;;;20.98;48.24;99430.84;4347889;33;34906;-82
2022/07/21 02:56:15;;;;;;;3.92;2.12;;;;;;;20.29;50.00;99430.81;4342288;33;35305;-82
2022/07/21 02:58:43;;;;;;;3.03;2.15;;;;;;;21.04;48.34;99424.38;4348878;33;33936;-82
2022/07/21 03:01:11;;;;;;;10.38;2.62;;;;;;;21.08;48.85;99431.22;4347275;33;34311;-81
2022/07/21 03:03:39;;;;;;;3.72;1.98;;;;;;;21.12;48.56;99430.09;4348975;33;35871;-81
2022/07/21 03:06:07;;;;;;;4.22;2.17;;;;;;;20.61;49.05;99432.75;4346923;33;34564;-82
2022/07/21 03:08:35;;;;;;;5.80;2.58;;;;;;;20.70;49.37;99435.84;4348868;33;33788;-82
2022/07/21 03:11:03;;;;;;;6.10;2.65;;;;;;;20.95;48.65;99433.66;4340284;33;33940;-82
2022/07/21 03:13:31;;;;;;;9.02;2.78;;;;;;;20.89;48.66;99436.59;4345654;33;35298;-82
2022/07/21 03:15:59;;;;;;;5.85;2.30;;;;;;;21.06;48.69;99432.25;4347212;33;34532;-82
2022/07/21 03:18:27;;;;;;;4.20;2.50;;;;;;;20.83;48.90;99434.28;4348965;33;34106;-82
2022/07/21 03:20:56;;;;;;;6.78;2.22;;;;;;;20.49;49.95;99438.63;4347364;33;34948;-82
2022/07/21 03:23:24;;;;;;;8.43;3.92;;;;;;;20.91;49.96;99440.03;4348891;33;35815;-82
2022/07/21 03:25:52;;;;;;;8.38;2.37;;;;;;;20.54;49.30;99433.06;4332169;33;34613;-87
2022/07/21 03:28:20;;;;;;;3.72;2.47;;;;;;;21.43;48.51;99443.53;4347310;33;33631;-81
2022/07/21 03:30:48;;;;;;;6.20;2.22;;;;;;;20.12;50.92;99437.78;4347040;33;33987;-82
2022/07/21 03:33:17;;;;;;;5.40;2.40;;;;;;;20.81;48.95;99438.81;4347126;33;35014;-81
2022/07/21 03:35:44;;;;;;;5.75;2.00;;;;;;;21.31;48.98;99437.94;4347120;33;34632;-82
2022/07/21 03:38:12;;;;;;;4.05;2.30;;;;;;;21.08;48.80;99433.00;4348649;33;33744;-82
2022/07/21 03:40:40;;;;;;;4.20;2.67;;;;;;;21.13;47.46;99426.53;4347064;33;33888;-82
2022/07/21 03:43:08;;;;;;;5.18;2.25;;;;;;;21.61;47.36;99434.59;4348589;33;34983;-86
2022/07/21 03:45:36;;;;;;;4.25;2.20;;;;;;;21.63;46.38;99430.06;4345466;33;34518;-82
2022/07/21 03:48:06;;;;;;;5.30;2.47;;;;;;;21.34;46.86;99437.78;4348446;33;33516;-82
2022/07/21 03:50:36;;;;;;;8.23;2.75;;;;;;;20.83;49.60;99437.78;4345796;33;34020;-81
2022/07/21 03:53:04;;;;;;;8.95;2.72;;;;;;;21.61;48.29;99439.03;4348455;33;35038;-82
2022/07/21 03:55:33;;;;;;;4.45;2.25;;;;;;;21.19;49.17;99434.16;4345327;33;34129;-82
2022/07/21 03:58:03;;;;;;;3.97;2.15;;;;;;;21.64;47.61;99438.88;4335435;33;34500;-81
2022/07/21 04:00:37;;;;;;;7.45;2.70;;;;;;;21.72;47.68;99437.50;4345535;33;33094;-82
2022/07/21 04:03:06;;;;;;;6.00;2.33;;;;;;;21.81;47.95;99448.53;4335203;33;35938;-82
2022/07/21 04:05:35;;;;;;;4.80;2.20;;;;;;;21.84;48.22;99445.72;4345986;33;34155;-82
2022/07/21 04:08:03;;;;;;;6.55;2.65;;;;;;;21.81;48.10;99451.19;4339951;33;33553;-82
2022/07/21 04:10:34;;;;;;;4.45;2.45;;;;;;;21.98;48.39;99448.44;4346667;33;33809;-82
2022/07/21 04:13:05;;;;;;;3.85;2.30;;;;;;;22.03;48.79;99446.41;4346938;33;35871;-83
2022/07/21 04:15:34;;;;;;;5.05;2.12;;;;;;;22.18;49.81;99442.00;4346709;33;34418;-82
2022/07/21 04:18:04;;;;;;;5.68;2.17;;;;;;;22.37;50.22;99449.81;4333696;33;33708;-82
2022/07/21 04:20:32;;;;;;;3.55;2.47;;;;;;;22.19;50.94;99450.84;4333375;33;34042;-82
2022/07/21 04:23:00;;;;;;;6.65;2.37;;;;;;;22.07;51.79;99447.94;4348119;33;35551;-82
2022/07/21 04:25:29;;;;;;;6.35;2.70;;;;;;;22.95;49.91;99450.81;4345119;33;34441;-82
2022/07/21 04:27:57;;;;;;;7.87;2.58;;;;;;;22.82;49.73;99445.41;4334896;33;33563;-82
2022/07/21 04:30:25;;;;;;;7.37;2.83;;;;;;;23.09;50.39;99450.03;4346313;33;34739;-82
2022/07/21 04:32:53;;;;;;;16.23;4.05;;;;;;;23.15;51.56;99451.44;4346735;33;35146;-82
2022/07/21 04:35:22;;;;;;;5.95;2.85;;;;;;;23.13;51.29;99451.53;4346427;33;34496;-83
2022/07/21 04:37:50;;;;;;;6.47;2.70;;;;;;;24.01;49.05;99460.22;4334734;33;34563;-82
2022/07/21 04:40:18;;;;;;;11.35;3.67;;;;;;;24.09;49.50;99458.88;4346525;33;34959;-82
2022/07/21 04:42:46;;;;;;;4.43;2.60;;;;;;;24.33;49.57;99459.09;4346325;33;34996;-82
2022/07/21 04:45:15;;;;;;;6.82;2.65;;;;;;;23.85;51.53;99446.22;4344348;33;34803;-83
2022/07/21 04:47:52;;;;;;;3.67;2.12;;;;;;;24.12;50.45;99458.69;4326101;33;33519;-84
2022/07/21 04:50:23;;;;;;;8.68;2.75;;;;;;;24.44;49.95;99461.03;4340045;33;34678;-85
2022/07/21 04:52:52;;;;;;;14.27;2.90;;;;;;;24.78;48.75;99454.34;4334370;33;34620;-83
2022/07/21 04:55:20;;;;;;;10.45;3.25;;;;;;;25.20;47.54;99463.03;4346057;33;34748;-84
2022/07/21 04:57:50;;;;;;;4.68;2.37;;;;;;;25.10;48.72;99462.78;4345823;33;33599;-85
2022/07/21 05:00:21;;;;;;;6.43;2.62;;;;;;;24.63;48.61;99464.22;4331756;33;33904;-82
2022/07/21 05:02:50;;;;;;;11.32;2.47;;;;;;;25.64;45.24;99466.19;4347297;33;34953;-82
2022/07/21 05:05:19;;;;;;;7.20;3.25;;;;;;;25.99;44.82;99465.50;4344425;33;34509;-81
2022/07/21 05:07:47;;;;;;;15.88;2.55;;;;;;;26.09;45.16;99461.22;4347396;33;34447;-85
2022/07/21 05:10:17;;;;;;;9.20;2.60;;;;;;;26.07;45.83;99463.97;4342250;33;34895;-85
2022/07/21 05:12:45;;;;;;;8.38;2.42;;;;;;;26.66;42.79;99463.19;4344096;33;35870;-84
2022/07/21 05:15:13;;;;;;;8.60;3.20;;;;;;;26.36;44.06;99460.13;4345631;33;35325;-84
2022/07/21 05:17:42;;;;;;;5.18;2.70;;;;;;;26.64;44.54;99459.78;4347968;33;33573;-82
2022/07/21 05:20:10;;;;;;;11.95;3.03;;;;;;;26.91;43.95;99463.97;4346172;33;33916;-85
2022/07/21 05:22:39;;;;;;;6.68;2.60;;;;;;;27.26;42.82;99463.06;4335968;33;35155;-84
2022/07/21 05:25:07;;;;;;;8.18;3.28;;;;;;;27.56;39.65;99459.84;4348110;33;34064;-82
2022/07/21 05:27:35;;;;;;;15.25;2.97;;;;;;;27.54;36.52;99458.25;4347909;33;33835;-85
2022/07/21 05:30:04;;;;;;;6.60;2.80;;;;;;;28.19;40.20;99470.00;4347584;33;33803;-86
2022/07/21 05:32:33;;;;;;;6.18;2.97;;;;;;;28.43;36.49;99469.81;4323704;33;35181;-86
2022/07/21 05:35:01;;;;;;;12.82;3.12;;;;;;;29.27;34.63;99469.03;4347679;33;34868;-83
2022/07/21 05:37:29;;;;;;;6.60;2.83;;;;;;;29.13;36.68;99480.91;4349308;33;33750;-86
2022/07/21 05:39:57;;;;;;;16.98;2.90;;;;;;;29.23;35.17;99479.19;4347823;33;33596;-86
2022/07/21 05:42:25;;;;;;;7.15;2.67;;;;;;;29.94;33.86;99489.09;4319765;33;35045;-81
2022/07/21 05:44:53;;;;;;;12.05;3.35;;;;;;;29.64;33.23;99481.91;4319621;33;35129;-82
2022/07/21 05:47:21;;;;;;;9.48;3.00;;;;;;;30.18;32.62;99493.28;4341694;33;33240;-85
2022/07/21 05:49:49;;;;;;;7.70;3.20;;;;;;;30.60;32.25;99495.72;4349140;33;33928;-83
2022/07/21 05:52:17;;;;;;;8.60;3.47;;;;;;;30.52;32.51;99493.75;4347479;33;35094;-84
2022/07/21 05:54:49;;;;;;;19.98;13.57;;;;;;;30.93;30.93;99499.00;4347705;33;35551;-85
2022/07/21 05:57:18;;;;;;;11.05;3.22;;;;;;;30.72;31.86;99489.22;4347477;33;33616;-85
2022/07/21 05:59:45;;;;;;;5.18;3.10;;;;;;;30.47;31.76;99492.47;4336042;33;33835;-81
2022/07/21 06:02:14;;;;;;;7.30;3.20;;;;;;;31.38;29.44;99495.66;4347682;33;35135;-83
2022/07/21 06:04:42;;;;;;;7.07;3.40;;;;;;;31.79;29.25;99495.38;4341365;33;34489;-84
2022/07/21 06:07:10;;;;;;;7.80;3.03;;;;;;;31.51;29.97;99489.97;4345459;33;34594;-86
2022/07/21 06:09:38;;;;;;;10.07;3.70;;;;;;;31.87;30.33;99490.94;4340747;33;33940;-83
2022/07/21 06:12:06;;;;;;;9.23;3.67;;;;;;;31.91;29.38;99489.63;4347608;33;35135;-84
2022/07/21 06:14:34;;;;;;;7.53;3.35;;;;;;;33.10;27.44;99487.78;4347518;33;34045;-86
2022/07/21 06:17:02;;;;;;;5.55;3.28;;;;;;;32.86;28.48;99491.97;4349097;33;33713;-84
2022/07/21 06:19:31;;;;;;;8.18;3.58;;;;;;;32.61;28.08;99491.75;4347508;33;33997;-84
2022/07/21 06:21:59;;;;;;;6.60;3.35;;;;;;;32.73;28.09;99491.53;4347399;33;35049;-84
2022/07/21 06:24:27;;;;;;;7.70;3.50;;;;;;;32.76;28.42;99496.63;4347316;33;34511;-84
2022/07/21 06:26:57;;;;;;;8.50;3.67;;;;;;;32.69;28.32;99494.53;4347612;33;34387;-83
2022/07/21 06:29:32;;;;;;;5.53;3.22;;;;;;;33.32;27.83;99498.06;4347056;33;34009;-85
2022/07/21 06:32:01;;;;;;;5.82;3.35;;;;;;;33.29;26.82;99494.84;4335774;33;35057;-85
2022/07/21 06:34:29;;;;;;;4.85;3.25;;;;;;;33.81;26.33;99492.97;4347433;33;34545;-84
2022/07/21 06:36:56;;;;;;;7.10;3.30;;;;;;;33.44;26.73;99490.53;4348889;33;33665;-85
2022/07/21 06:39:25;;;;;;;17.40;3.55;;;;;;;33.95;26.53;99477.94;4338343;33;33962;-85
2022/07/21 06:41:53;;;;;;;5.30;3.10;;;;;;;33.90;25.86;99485.69;4320950;33;35032;-84
2022/07/21 06:44:20;;;;;;;7.75;3.10;;;;;;;34.23;25.79;99490.41;4334146;33;34502;-85
2022/07/21 06:46:49;;;;;;;9.02;3.55;;;;;;;34.46;25.14;99490.59;4334178;33;33552;-84
2022/07/21 06:49:16;;;;;;;6.43;2.95;;;;;;;34.88;24.67;99478.81;4334173;33;33789;-84
2022/07/21 06:51:44;;;;;;;8.07;3.12;;;;;;;34.82;26.19;99480.34;4334142;33;35158;-84
2022/07/21 06:54:13;;;;;;;6.47;3.12;;;;;;;34.90;24.89;99488.44;4333937;33;34397;-84
2022/07/21 06:56:41;;;;;;;7.90;3.35;;;;;;;35.00;25.00;99485.56;4347456;33;33288;-84
2022/07/21 06:59:09;;;;;;;9.60;3.05;;;;;;;35.55;24.53;99486.66;4345816;33;33920;-84
2022/07/21 07:01:38;;;;;;;5.57;3.05;;;;;;;35.10;24.40;99482.66;4348738;33;35788;-84
2022/07/21 07:04:06;;;;;;;7.00;3.08;;;;;;;35.62;24.27;99495.78;4347255;33;34465;-85
2022/07/21 07:06:34;;;;;;;5.43;3.00;;;;;;;35.44;24.33;99489.75;4349119;33;33661;-85
2022/07/21 07:09:02;;;;;;;7.93;3.47;;;;;;;36.47;23.73;99490.66;4341252;33;34734;-85
2022/07/21 07:11:30;;;;;;;4.55;2.90;;;;;;;36.21;24.32;99491.81;4346807;33;35030;-85
2022/07/21 07:13:58;;;;;;;6.32;3.28;;;;;;;36.46;23.13;99488.94;4347103;33;34072;-86
2022/07/21 07:16:44;;;;;;;9.75;4.30;;;;;;;35.57;24.18;99487.31;4348716;33;33749;-85
2022/07/21 07:19:13;;;;;;;6.82;3.50;;;;;;;36.14;23.29;99493.53;4347265;33;33534;-85
2022/07/21 07:21:40;;;;;;;4.87;3.05;;;;;;;35.81;23.71;99485.56;4348614;33;35918;-84
2022/07/21 07:24:09;;;;;;;9.32;3.20;;;;;;;36.19;24.07;99488.41;4347118;33;34179;-85
2022/07/21 07:26:38;;;;;;;10.63;3.05;;;;;;;36.92;22.25;99488.94;4348735;33;33679;-83
2022/07/21 07:29:06;;;;;;;11.25;2.90;;;;;;;35.85;22.73;99492.34;4343224;33;33962;-84
2022/07/21 07:31:35;;;;;;;6.00;3.47;;;;;;;36.44;23.61;99486.41;4348640;33;35084;-84
2022/07/21 07:34:04;;;;;;;5.45;3.08;;;;;;;36.63;23.07;99482.37;4345293;33;35097;-84
2022/07/21 07:36:32;;;;;;;6.03;3.35;;;;;;;36.52;22.37;99483.66;4347195;33;33774;-84
2022/07/21 07:39:01;;;;;;;5.40;3.28;;;;;;;36.06;23.22;99478.16;4347276;33;34012;-83
2022/07/21 07:41:31;;;;;;;4.60;2.87;;;;;;;36.29;23.85;99483.66;4347511;33;34890;-84
2022/07/21 07:43:59;;;;;;;8.90;4.03;;;;;;;36.27;22.81;99479.41;4346958;33;34578;-83
2022/07/21 07:46:27;;;;;;;7.68;3.05;;;;;;;37.54;21.58;99471.53;4348805;33;33349;-84
2022/07/21 07:48:55;;;;;;;6.97;3.20;;;;;;;37.26;22.03;99472.19;4346819;33;33955;-84
2022/07/21 07:51:24;;;;;;;6.55;3.25;;;;;;;37.60;20.58;99473.47;4347096;33;36010;-85
2022/07/21 07:53:52;;;;;;;8.80;3.75;;;;;;;36.46;23.51;99473.50;4347010;33;34676;-84
2022/07/21 07:56:20;;;;;;;5.03;2.87;;;;;;;37.66;21.53;99471.91;4348602;33;33573;-84
2022/07/21 07:58:49;;;;;;;7.93;2.90;;;;;;;37.97;20.05;99465.41;4346919;33;33535;-84
2022/07/21 08:01:18;;;;;;;6.32;3.37;;;;;;;36.71;21.98;99479.62;4347053;33;35069;-84
2022/07/21 08:03:46;;;;;;;5.70;2.92;;;;;;;36.91;22.45;99481.84;4346905;33;35381;-85
2022/07/21 08:06:15;;;;;;;4.97;3.05;;;;;;;38.51;21.50;99478.56;4335208;33;33647;-85
2022/07/21 08:08:43;;;;;;;8.10;3.28;;;;;;;37.62;22.89;99478.72;4346808;33;33834;-84
2022/07/21 08:11:13;;;;;;;5.12;3.10;;;;;;;37.86;21.44;99478.44;4339872;33;35217;-84
2022/07/21 08:13:41;;;;;;;5.87;3.25;;;;;;;38.82;20.47;99474.66;4345342;33;35129;-84
2022/07/21 08:16:09;;;;;;;9.30;4.60;;;;;;;38.48;20.73;99476.22;4346913;33;33587;-85
2022/07/21 08:18:38;;;;;;;7.20;3.00;;;;;;;37.74;20.92;99477.25;4346758;33;34967;-83
2022/07/21 08:21:10;;;;;;;10.32;3.28;;;;;;;39.48;19.10;99478.94;4348372;33;35848;-84
2022/07/21 08:23:39;;;;;;;5.78;2.95;;;;;;;39.07;19.12;99472.38;4346396;33;34094;-84
2022/07/21 08:26:07;;;;;;;10.98;3.10;;;;;;;38.12;21.33;99474.38;4348287;33;33753;-85
2022/07/21 08:28:35;;;;;;;6.57;3.12;;;;;;;38.93;20.35;99465.94;4346228;33;33358;-85
2022/07/21 08:31:03;;;;;;;6.37;2.83;;;;;;;38.77;20.40;99466.25;4333531;33;35698;-85
2022/07/21 08:33:31;;;;;;;4.75;2.78;;;;;;;37.38;20.40;99467.13;4346479;33;34538;-84
2022/07/21 08:35:59;;;;;;;4.10;2.47;;;;;;;37.56;20.08;99464.88;4348203;33;33671;-84
2022/07/21 08:38:27;;;;;;;6.25;3.12;;;;;;;36.79;21.07;99462.44;4346621;33;34117;-84
2022/07/21 08:40:55;;;;;;;4.70;2.80;;;;;;;36.85;20.78;99460.84;4305595;33;35002;-85
2022/07/21 08:43:24;;;;;;;7.45;2.90;;;;;;;38.22;19.88;99457.75;4305398;33;34480;-84
2022/07/21 08:45:54;;;;;;;11.00;2.87;;;;;;;38.53;19.58;99457.44;4333081;33;32155;-84
2022/07/21 08:48:24;;;;;;;4.72;2.97;;;;;;;38.06;20.88;99458.81;4321063;33;34040;-84
2022/07/21 08:50:52;;;;;;;4.57;2.92;;;;;;;37.80;21.94;99454.72;4346942;33;34540;-84
2022/07/21 08:53:20;;;;;;;6.10;2.80;;;;;;;38.78;19.87;99452.44;4349757;33;34497;-84
2022/07/21 08:55:48;;;;;;;5.15;3.10;;;;;;;39.02;20.27;99453.91;4333824;33;33358;-84
2022/07/21 08:58:18;;;;;;;9.32;3.33;;;;;;;39.50;19.50;99446.88;4349487;33;34649;-84
2022/07/21 09:00:48;;;;;;;6.30;2.85;;;;;;;38.65;19.21;99447.72;4347771;33;34658;-85
2022/07/21 09:03:23;;;;;;;10.15;3.45;;;;;;;39.13;19.84;99446.22;4347953;33;33650;-85
2022/07/21 09:06:07;;;;;;;7.45;3.20;;;;;;;39.96;18.67;99443.53;4342788;33;33423;-85
2022/07/21 09:09:06;;;;;;;5.68;3.03;;;;;;;38.50;19.27;99446.94;4321599;33;34005;-86
2022/07/21 09:11:35;;;;;;;5.57;2.95;;;;;;;38.27;19.47;99445.25;4300598;33;34917;-83
2022/07/21 09:14:10;;;;;;;8.82;3.00;;;;;;;38.44;19.15;99447.69;4324877;33;34026;-86
2022/07/21 09:16:51;;;;;;;5.78;3.40;;;;;;;38.51;19.67;99435.03;4349554;33;33667;-85
2022/07/21 09:19:45;;;;;;;5.37;3.40;;;;;;;38.04;19.92;99444.56;4346454;33;34670;-83
2022/07/21 09:22:19;;;;;;;4.95;2.97;;;;;;;38.20;19.94;99443.50;4349268;33;35967;-80
2022/07/21 09:24:51;;;;;;;;;;;;;;;39.00;18.99;99439.59;4333960;33;34419;-80
2022/07/21 09:27:25;;;;;;;8.75;2.62;;;;;;;37.56;20.85;99445.84;4335943;33;31987;-86
2022/07/21 09:29:57;;;;;;;6.93;2.87;;;;;;;37.70;20.84;99435.19;4347674;33;34522;-83
2022/07/21 09:32:31;;;;;;;7.20;3.28;;;;;;;38.96;20.29;99432.88;4349324;33;36087;-82
2022/07/21 09:35:00;;;;;;;5.93;2.97;;;;;;;39.20;18.54;99428.06;4347671;33;35248;-84
2022/07/21 09:37:34;;;;;;;9.95;7.10;;;;;;;39.41;17.96;99424.38;4335141;33;33543;-84
2022/07/21 09:40:08;;;;;;;8.13;3.30;;;;;;;39.15;19.44;99427.81;4347577;33;34800;-83
2022/07/21 09:42:39;;;;;;;8.33;3.43;;;;;;;37.92;20.45;99428.75;4349153;33;34984;-86
2022/07/21 09:45:13;;;;;;;6.12;3.05;;;;;;;39.69;18.52;99423.47;4347377;33;33684;-81
2022/07/21 09:47:42;;;;;;;5.65;2.90;;;;;;;39.06;18.79;99427.13;4349184;33;33897;-86
2022/07/21 09:50:13;;;;;;;8.70;3.10;;;;;;;38.77;19.31;99425.41;4347830;33;34328;-84
2022/07/21 09:52:56;;;;;;;4.87;3.10;;;;;;;40.47;19.05;99420.31;4337414;33;35011;-87
2022/07/21 09:55:28;;;;;;;5.97;3.50;;;;;;;39.43;19.02;99414.97;4344074;33;34779;-85
2022/07/21 09:57:58;;;;;;;7.47;3.30;;;;;;;38.77;20.75;99409.91;4349167;33;33204;-80
2022/07/21 10:00:27;;;;;;;6.90;3.30;;;;;;;40.50;17.68;99412.56;4347515;33;33818;-84
2022/07/21 10:02:56;;;;;;;5.55;3.00;;;;;;;39.51;18.07;99396.78;4348223;33;35036;-85
2022/07/21 10:05:24;;;;;;;6.10;3.58;;;;;;;39.42;18.75;99398.81;4347846;33;35133;-84
2022/07/21 10:08:02;;;;;;;9.35;3.35;;;;;;;39.44;19.41;99391.28;4336007;33;33726;-81
2022/07/21 10:10:35;;;;;;;;;;;;;;;39.56;18.46;99397.03;4329059;33;33550;-83
2022/07/21 10:13:27;;;;;;;13.60;3.40;;;;;;;39.64;18.95;99396.84;4345035;33;35450;-84
2022/07/21 10:15:55;;;;;;;10.60;3.15;;;;;;;40.85;16.58;99397.88;4347305;33;34545;-81
2022/07/21 10:18:26;;;;;;;4.45;3.10;;;;;;;39.99;19.01;99388.56;4335683;33;33802;-82
2022/07/21 10:21:50;;;;;;;8.20;3.28;;;;;;;40.10;19.33;99395.28;4334172;33;33128;-85
2022/07/21 10:24:18;;;;;;;6.60;3.65;;;;;;;39.10;18.71;99395.72;4342614;33;35882;-80
2022/07/21 10:27:01;;;;;;;6.40;3.28;;;;;;;38.80;19.95;99392.34;4334100;33;34308;-80
2022/07/21 10:29:54;;;;;;;4.25;2.97;;;;;;;40.09;19.17;99389.00;4332908;33;33677;-79
2022/07/21 10:32:31;;;;;;;5.55;2.92;;;;;;;40.76;18.34;99383.56;4347367;33;33825;-83
2022/07/21 10:35:20;;;;;;;6.70;2.80;;;;;;;40.60;19.09;99378.56;4337861;33;35601;-79
2022/07/21 10:37:48;;;;;;;4.45;2.67;;;;;;;40.55;16.83;99380.03;4333397;33;33805;-79
2022/07/21 10:40:20;;;;;;;5.72;2.72;;;;;;;40.43;18.04;99378.97;4339750;33;34624;-84
2022/07/21 10:43:04;;;;;;;6.03;2.55;;;;;;;40.79;19.32;99376.84;4347905;33;33468;-83
2022/07/21 10:45:38;;;;;;;5.37;2.40;;;;;;;40.51;16.94;99377.94;4335778;33;34997;-79
2022/07/21 10:48:45;;;;;;;4.10;2.50;;;;;;;41.10;17.48;99371.53;4341165;33;34636;-81
2022/07/21 10:51:15;;;;;;;7.12;2.92;;;;;;;42.05;16.14;99376.37;4270536;33;33631;-79
2022/07/21 10:53:45;;;;;;;4.87;2.65;;;;;;;41.73;16.17;99369.25;4335232;33;33965;-79
2022/07/21 10:56:32;;;;;;;7.80;2.90;;;;;;;42.01;16.31;99380.62;4346814;33;35160;-79
2022/07/21 10:59:00;;;;;;;3.72;2.55;;;;;;;41.61;14.86;99364.41;4348271;33;34547;-79
2022/07/21 11:01:28;;;;;;;5.07;2.42;;;;;;;40.98;15.55;99366.97;4333476;33;32596;-80
2022/07/21 11:04:20;;;;;;;4.90;2.55;;;;;;;40.47;16.39;99352.97;4348755;33;33861;-79
2022/07/21 11:06:58;;;;;;;7.03;3.17;;;;;;;41.20;14.79;99351.97;4344662;33;35189;-80
2022/07/21 11:09:26;;;;;;;4.87;2.67;;;;;;;41.12;15.22;99346.75;4347057;33;35113;-80
2022/07/21 11:12:03;;;;;;;8.30;3.20;;;;;;;41.05;15.44;99356.84;4348827;33;34596;-80
2022/07/21 11:14:49;;;;;;;4.95;2.85;;;;;;;40.47;17.11;99344.78;4347351;33;33832;-80
2022/07/21 11:17:26;;;;;;;6.78;2.55;;;;;;;40.41;17.85;99342.88;4334137;33;36081;-80
2022/07/21 11:19:54;;;;;;;7.18;2.58;;;;;;;40.80;15.92;99341.16;4332831;33;34970;-80
2022/07/21 11:22:27;;;;;;;2.97;2.35;;;;;;;40.46;17.23;99334.06;4348968;33;34466;-81
2022/07/21 11:25:00;;;;;;;6.03;2.37;;;;;;;40.37;17.69;99336.16;4345793;33;33824;-80
2022/07/21 11:27:32;;;;;;;5.97;2.22;;;;;;;40.48;17.66;99330.06;4347247;33;35997;-80
2022/07/21 11:30:04;;;;;;;4.53;2.20;;;;;;;41.24;17.28;99330.56;4345642;33;33815;-81
2022/07/21 11:32:33;;;;;;;4.60;2.25;;;;;;;40.88;17.01;99327.28;4348730;33;34374;-80
2022/07/21 11:35:03;;;;;;;4.57;2.40;;;;;;;41.00;15.62;99334.81;4342922;33;34751;-81
2022/07/21 11:37:40;;;;;;;5.00;2.08;;;;;;;41.13;15.79;99329.31;4348692;33;35272;-80
2022/07/21 11:40:16;;;;;;;4.75;1.80;;;;;;;41.45;14.67;99326.66;4333773;33;34647;-80
2022/07/21 11:42:46;;;;;;;7.20;2.58;;;;;;;40.98;15.32;99328.72;4347473;33;34460;-80
2022/07/21 11:45:17;;;;;;;4.22;2.75;;;;;;;40.45;15.34;99322.31;4333872;33;34009;-80
2022/07/21 11:47:49;;;;;;;8.73;2.28;;;;;;;40.70;15.57;99318.91;4348682;33;35903;-80
2022/07/21 11:50:19;;;;;;;3.75;2.12;;;;;;;41.45;15.79;99307.53;4345518;33;34490;-81